Anthony, Texas
Current Conditions -  °F | °C
As of 10:58 AM on Wednesday 26 Nov 2014 (Local Time) from KBIF Reporting Station
Clear Clear  
Wind Chill: 53°   Ceiling: Unl
Heat Index: 53°   Visibility: 10mi
Dew Point: 10°   Wind: 6mph
Humidity: 18%   Direction: 130°SE
Pressure: 30.36"   Gusts: NA
Location:  32°N, 106.61°W
Report Text: KBIF 261758Z 13005KT 10SM CLR 11/M12 A3036 RMK AO2A SLP263 T01141125 10114 21034 58002
Loading
Personal Weather Stations






























Interactive Weather Map New forecast layout! Learn more

10-Day Weather Forecast

Advertisements
Track Severe Weather on mobile